sensor_id;sensor_type;location;lat;lon;timestamp;P1;durP1;ratioP1;P2;durP2;ratioP2
7410;SDS011;3747;48.628;9.058;2023-12-07T00:01:33;13.97;;;9.27;;
7410;SDS011;3747;48.628;9.058;2023-12-07T00:04:00;10.77;;;8.50;;
7410;SDS011;3747;48.628;9.058;2023-12-07T00:06:27;13.10;;;9.40;;
7410;SDS011;3747;48.628;9.058;2023-12-07T00:08:53;9.80;;;7.93;;
7410;SDS011;3747;48.628;9.058;2023-12-07T00:11:21;11.00;;;8.27;;
7410;SDS011;3747;48.628;9.058;2023-12-07T00:13:48;10.53;;;7.57;;
7410;SDS011;3747;48.628;9.058;2023-12-07T00:16:14;9.77;;;7.30;;
7410;SDS011;3747;48.628;9.058;2023-12-07T00:18:43;11.87;;;7.53;;
7410;SDS011;3747;48.628;9.058;2023-12-07T00:21:09;10.80;;;8.13;;
7410;SDS011;3747;48.628;9.058;2023-12-07T00:23:36;10.73;;;8.47;;
7410;SDS011;3747;48.628;9.058;2023-12-07T00:26:03;11.37;;;8.50;;
7410;SDS011;3747;48.628;9.058;2023-12-07T00:28:30;27.93;;;16.87;;
7410;SDS011;3747;48.628;9.058;2023-12-07T00:30:56;8.30;;;7.50;;
7410;SDS011;3747;48.628;9.058;2023-12-07T00:33:22;9.47;;;7.50;;
7410;SDS011;3747;48.628;9.058;2023-12-07T00:35:50;8.37;;;7.17;;
7410;SDS011;3747;48.628;9.058;2023-12-07T00:38:17;10.33;;;8.50;;
7410;SDS011;3747;48.628;9.058;2023-12-07T00:40:46;12.47;;;9.80;;
7410;SDS011;3747;48.628;9.058;2023-12-07T00:43:12;19.07;;;11.33;;
7410;SDS011;3747;48.628;9.058;2023-12-07T00:45:39;7.77;;;6.37;;
7410;SDS011;3747;48.628;9.058;2023-12-07T00:48:06;8.80;;;6.97;;
7410;SDS011;3747;48.628;9.058;2023-12-07T00:50:32;7.30;;;5.73;;
7410;SDS011;3747;48.628;9.058;2023-12-07T00:53:00;7.37;;;5.90;;
7410;SDS011;3747;48.628;9.058;2023-12-07T00:55:27;7.20;;;6.10;;
7410;SDS011;3747;48.628;9.058;2023-12-07T00:57:54;6.80;;;5.83;;
7410;SDS011;3747;48.628;9.058;2023-12-07T01:00:21;10.17;;;6.57;;
7410;SDS011;3747;48.628;9.058;2023-12-07T01:02:47;7.73;;;6.30;;
7410;SDS011;3747;48.628;9.058;2023-12-07T01:05:14;7.63;;;6.17;;
7410;SDS011;3747;48.628;9.058;2023-12-07T01:07:41;9.33;;;7.07;;
7410;SDS011;3747;48.628;9.058;2023-12-07T01:10:09;7.67;;;6.80;;
7410;SDS011;3747;48.628;9.058;2023-12-07T01:12:36;9.17;;;7.03;;
7410;SDS011;3747;48.628;9.058;2023-12-07T01:15:03;10.97;;;7.73;;
7410;SDS011;3747;48.628;9.058;2023-12-07T01:17:30;8.77;;;7.67;;
7410;SDS011;3747;48.628;9.058;2023-12-07T01:19:57;10.30;;;8.37;;
7410;SDS011;3747;48.628;9.058;2023-12-07T01:22:32;11.13;;;8.13;;
7410;SDS011;3747;48.628;9.058;2023-12-07T01:24:59;9.37;;;7.57;;
7410;SDS011;3747;48.628;9.058;2023-12-07T01:27:27;9.77;;;7.53;;
7410;SDS011;3747;48.628;9.058;2023-12-07T01:29:54;11.93;;;8.87;;
7410;SDS011;3747;48.628;9.058;2023-12-07T01:32:20;14.10;;;9.33;;
7410;SDS011;3747;48.628;9.058;2023-12-07T01:34:47;11.03;;;7.40;;
7410;SDS011;3747;48.628;9.058;2023-12-07T01:37:14;9.93;;;7.77;;
7410;SDS011;3747;48.628;9.058;2023-12-07T01:39:41;9.50;;;7.17;;
7410;SDS011;3747;48.628;9.058;2023-12-07T01:42:09;9.70;;;7.90;;
7410;SDS011;3747;48.628;9.058;2023-12-07T01:44:38;11.47;;;7.23;;
7410;SDS011;3747;48.628;9.058;2023-12-07T01:47:05;11.40;;;8.23;;
7410;SDS011;3747;48.628;9.058;2023-12-07T01:49:33;10.23;;;7.90;;
7410;SDS011;3747;48.628;9.058;2023-12-07T01:51:59;10.30;;;7.60;;
7410;SDS011;3747;48.628;9.058;2023-12-07T01:54:27;12.93;;;8.30;;
7410;SDS011;3747;48.628;9.058;2023-12-07T01:56:55;9.67;;;7.67;;
7410;SDS011;3747;48.628;9.058;2023-12-07T01:59:22;9.53;;;7.80;;
7410;SDS011;3747;48.628;9.058;2023-12-07T02:01:50;11.60;;;8.60;;
7410;SDS011;3747;48.628;9.058;2023-12-07T02:04:17;11.67;;;9.20;;
7410;SDS011;3747;48.628;9.058;2023-12-07T02:06:44;11.33;;;9.83;;
7410;SDS011;3747;48.628;9.058;2023-12-07T02:09:11;11.77;;;8.90;;
7410;SDS011;3747;48.628;9.058;2023-12-07T02:11:37;12.83;;;9.43;;
7410;SDS011;3747;48.628;9.058;2023-12-07T02:14:04;12.90;;;8.97;;
7410;SDS011;3747;48.628;9.058;2023-12-07T02:16:31;13.87;;;10.07;;
7410;SDS011;3747;48.628;9.058;2023-12-07T02:19:11;12.97;;;9.83;;
7410;SDS011;3747;48.628;9.058;2023-12-07T02:21:47;13.43;;;10.20;;
7410;SDS011;3747;48.628;9.058;2023-12-07T02:24:20;12.97;;;10.03;;
7410;SDS011;3747;48.628;9.058;2023-12-07T02:26:49;13.90;;;9.43;;
7410;SDS011;3747;48.628;9.058;2023-12-07T02:29:16;13.07;;;10.70;;
7410;SDS011;3747;48.628;9.058;2023-12-07T02:31:42;14.00;;;10.27;;
7410;SDS011;3747;48.628;9.058;2023-12-07T02:34:09;13.80;;;9.90;;
7410;SDS011;3747;48.628;9.058;2023-12-07T02:36:36;13.20;;;9.63;;
7410;SDS011;3747;48.628;9.058;2023-12-07T02:39:05;14.40;;;10.07;;
7410;SDS011;3747;48.628;9.058;2023-12-07T02:41:34;11.77;;;9.43;;
7410;SDS011;3747;48.628;9.058;2023-12-07T02:44:04;12.67;;;9.37;;
7410;SDS011;3747;48.628;9.058;2023-12-07T02:46:31;13.03;;;9.27;;
7410;SDS011;3747;48.628;9.058;2023-12-07T02:48:58;16.37;;;10.00;;
7410;SDS011;3747;48.628;9.058;2023-12-07T02:51:25;12.47;;;9.10;;
7410;SDS011;3747;48.628;9.058;2023-12-07T02:53:51;12.10;;;9.27;;
7410;SDS011;3747;48.628;9.058;2023-12-07T02:56:18;14.63;;;9.93;;
7410;SDS011;3747;48.628;9.058;2023-12-07T02:58:44;14.13;;;9.83;;
7410;SDS011;3747;48.628;9.058;2023-12-07T03:01:12;14.47;;;9.53;;
7410;SDS011;3747;48.628;9.058;2023-12-07T03:03:39;15.27;;;9.30;;
7410;SDS011;3747;48.628;9.058;2023-12-07T03:06:07;13.97;;;8.93;;
7410;SDS011;3747;48.628;9.058;2023-12-07T03:08:34;12.03;;;9.03;;
7410;SDS011;3747;48.628;9.058;2023-12-07T03:11:00;13.30;;;9.23;;
7410;SDS011;3747;48.628;9.058;2023-12-07T03:13:27;14.83;;;10.13;;
7410;SDS011;3747;48.628;9.058;2023-12-07T03:15:53;14.33;;;9.27;;
7410;SDS011;3747;48.628;9.058;2023-12-07T03:18:21;16.27;;;11.17;;
7410;SDS011;3747;48.628;9.058;2023-12-07T03:20:48;15.20;;;10.23;;
7410;SDS011;3747;48.628;9.058;2023-12-07T03:23:16;15.33;;;10.30;;
7410;SDS011;3747;48.628;9.058;2023-12-07T03:25:42;17.40;;;10.63;;
7410;SDS011;3747;48.628;9.058;2023-12-07T03:28:09;16.53;;;10.70;;
7410;SDS011;3747;48.628;9.058;2023-12-07T03:30:36;15.47;;;10.47;;
7410;SDS011;3747;48.628;9.058;2023-12-07T03:33:02;18.90;;;11.13;;
7410;SDS011;3747;48.628;9.058;2023-12-07T03:35:30;17.23;;;12.40;;
7410;SDS011;3747;48.628;9.058;2023-12-07T03:37:57;13.50;;;10.40;;
7410;SDS011;3747;48.628;9.058;2023-12-07T03:40:24;14.90;;;10.47;;
7410;SDS011;3747;48.628;9.058;2023-12-07T03:42:50;15.63;;;9.77;;
7410;SDS011;3747;48.628;9.058;2023-12-07T03:45:17;14.57;;;9.70;;
7410;SDS011;3747;48.628;9.058;2023-12-07T03:47:44;16.80;;;10.07;;
7410;SDS011;3747;48.628;9.058;2023-12-07T03:50:10;13.13;;;8.50;;
7410;SDS011;3747;48.628;9.058;2023-12-07T03:52:38;13.23;;;9.57;;
7410;SDS011;3747;48.628;9.058;2023-12-07T03:55:05;14.73;;;9.03;;
7410;SDS011;3747;48.628;9.058;2023-12-07T03:57:32;14.17;;;9.43;;
7410;SDS011;3747;48.628;9.058;2023-12-07T03:59:58;13.57;;;9.20;;
7410;SDS011;3747;48.628;9.058;2023-12-07T04:02:24;14.57;;;9.47;;
7410;SDS011;3747;48.628;9.058;2023-12-07T04:04:52;15.13;;;10.17;;
7410;SDS011;3747;48.628;9.058;2023-12-07T04:07:18;15.57;;;10.37;;
7410;SDS011;3747;48.628;9.058;2023-12-07T04:09:46;14.23;;;9.60;;
7410;SDS011;3747;48.628;9.058;2023-12-07T04:12:13;16.23;;;10.10;;
7410;SDS011;3747;48.628;9.058;2023-12-07T04:14:40;12.87;;;9.17;;
7410;SDS011;3747;48.628;9.058;2023-12-07T04:17:06;13.67;;;9.43;;
7410;SDS011;3747;48.628;9.058;2023-12-07T04:19:33;13.20;;;9.27;;
7410;SDS011;3747;48.628;9.058;2023-12-07T04:21:59;13.70;;;9.37;;
7410;SDS011;3747;48.628;9.058;2023-12-07T04:24:27;13.77;;;9.47;;
7410;SDS011;3747;48.628;9.058;2023-12-07T04:26:55;15.67;;;10.73;;
7410;SDS011;3747;48.628;9.058;2023-12-07T04:29:22;15.87;;;10.60;;
7410;SDS011;3747;48.628;9.058;2023-12-07T04:31:48;14.47;;;10.57;;
7410;SDS011;3747;48.628;9.058;2023-12-07T04:34:15;17.27;;;11.13;;
7410;SDS011;3747;48.628;9.058;2023-12-07T04:36:42;15.23;;;10.20;;
7410;SDS011;3747;48.628;9.058;2023-12-07T04:39:08;16.77;;;10.97;;
7410;SDS011;3747;48.628;9.058;2023-12-07T04:41:36;16.90;;;11.07;;
7410;SDS011;3747;48.628;9.058;2023-12-07T04:44:04;13.07;;;10.03;;
7410;SDS011;3747;48.628;9.058;2023-12-07T04:46:30;18.63;;;10.50;;
7410;SDS011;3747;48.628;9.058;2023-12-07T04:48:57;17.97;;;11.20;;
7410;SDS011;3747;48.628;9.058;2023-12-07T04:51:24;15.47;;;10.30;;
7410;SDS011;3747;48.628;9.058;2023-12-07T04:53:51;16.83;;;10.47;;
7410;SDS011;3747;48.628;9.058;2023-12-07T04:56:17;14.60;;;10.83;;
7410;SDS011;3747;48.628;9.058;2023-12-07T04:58:44;16.73;;;10.60;;
7410;SDS011;3747;48.628;9.058;2023-12-07T05:01:12;15.13;;;11.37;;
7410;SDS011;3747;48.628;9.058;2023-12-07T05:03:39;14.57;;;11.30;;
7410;SDS011;3747;48.628;9.058;2023-12-07T05:06:05;18.13;;;11.27;;
7410;SDS011;3747;48.628;9.058;2023-12-07T05:08:33;19.80;;;12.80;;
7410;SDS011;3747;48.628;9.058;2023-12-07T05:10:59;18.60;;;12.67;;
7410;SDS011;3747;48.628;9.058;2023-12-07T05:13:26;20.70;;;12.40;;
7410;SDS011;3747;48.628;9.058;2023-12-07T05:15:53;19.13;;;12.17;;
7410;SDS011;3747;48.628;9.058;2023-12-07T05:18:21;18.33;;;11.80;;
7410;SDS011;3747;48.628;9.058;2023-12-07T05:20:47;20.47;;;12.73;;
7410;SDS011;3747;48.628;9.058;2023-12-07T05:23:14;17.10;;;11.97;;
7410;SDS011;3747;48.628;9.058;2023-12-07T05:25:50;20.30;;;12.73;;
7410;SDS011;3747;48.628;9.058;2023-12-07T05:28:16;23.70;;;13.40;;
7410;SDS011;3747;48.628;9.058;2023-12-07T05:30:43;21.40;;;12.20;;
7410;SDS011;3747;48.628;9.058;2023-12-07T05:33:11;19.63;;;12.23;;
7410;SDS011;3747;48.628;9.058;2023-12-07T05:35:39;22.00;;;13.17;;
7410;SDS011;3747;48.628;9.058;2023-12-07T05:38:05;20.40;;;12.47;;
7410;SDS011;3747;48.628;9.058;2023-12-07T05:40:32;18.47;;;10.93;;
7410;SDS011;3747;48.628;9.058;2023-12-07T05:42:59;20.00;;;12.80;;
7410;SDS011;3747;48.628;9.058;2023-12-07T05:45:26;18.63;;;11.87;;
7410;SDS011;3747;48.628;9.058;2023-12-07T05:47:53;19.77;;;11.50;;
7410;SDS011;3747;48.628;9.058;2023-12-07T05:50:20;19.17;;;12.17;;
7410;SDS011;3747;48.628;9.058;2023-12-07T05:52:48;21.60;;;13.03;;
7410;SDS011;3747;48.628;9.058;2023-12-07T05:55:15;20.80;;;12.13;;
7410;SDS011;3747;48.628;9.058;2023-12-07T05:57:44;19.57;;;11.70;;
7410;SDS011;3747;48.628;9.058;2023-12-07T06:00:11;21.83;;;12.07;;
7410;SDS011;3747;48.628;9.058;2023-12-07T06:02:41;22.23;;;12.53;;
7410;SDS011;3747;48.628;9.058;2023-12-07T06:05:08;19.67;;;12.70;;
7410;SDS011;3747;48.628;9.058;2023-12-07T06:07:36;21.40;;;13.60;;
7410;SDS011;3747;48.628;9.058;2023-12-07T06:10:04;19.40;;;12.90;;
7410;SDS011;3747;48.628;9.058;2023-12-07T06:12:31;19.47;;;12.23;;
7410;SDS011;3747;48.628;9.058;2023-12-07T06:14:58;20.87;;;11.87;;
7410;SDS011;3747;48.628;9.058;2023-12-07T06:17:25;22.93;;;14.23;;
7410;SDS011;3747;48.628;9.058;2023-12-07T06:19:52;22.90;;;13.13;;
7410;SDS011;3747;48.628;9.058;2023-12-07T06:22:18;28.60;;;16.17;;
7410;SDS011;3747;48.628;9.058;2023-12-07T06:24:45;34.43;;;18.63;;
7410;SDS011;3747;48.628;9.058;2023-12-07T06:27:13;34.33;;;19.40;;
7410;SDS011;3747;48.628;9.058;2023-12-07T06:29:40;32.87;;;18.23;;
7410;SDS011;3747;48.628;9.058;2023-12-07T06:32:07;32.07;;;16.13;;
7410;SDS011;3747;48.628;9.058;2023-12-07T06:34:33;26.73;;;15.33;;
7410;SDS011;3747;48.628;9.058;2023-12-07T06:37:05;25.27;;;16.00;;
7410;SDS011;3747;48.628;9.058;2023-12-07T06:39:31;24.77;;;14.70;;
7410;SDS011;3747;48.628;9.058;2023-12-07T06:41:58;29.17;;;16.13;;
7410;SDS011;3747;48.628;9.058;2023-12-07T06:44:27;30.43;;;15.90;;
7410;SDS011;3747;48.628;9.058;2023-12-07T06:46:53;26.33;;;15.97;;
7410;SDS011;3747;48.628;9.058;2023-12-07T06:49:20;32.63;;;16.23;;
7410;SDS011;3747;48.628;9.058;2023-12-07T06:51:47;27.83;;;16.03;;
7410;SDS011;3747;48.628;9.058;2023-12-07T06:54:14;31.00;;;17.10;;
7410;SDS011;3747;48.628;9.058;2023-12-07T06:56:40;33.03;;;17.77;;
7410;SDS011;3747;48.628;9.058;2023-12-07T06:59:07;35.50;;;19.50;;
7410;SDS011;3747;48.628;9.058;2023-12-07T07:01:36;44.47;;;22.80;;
7410;SDS011;3747;48.628;9.058;2023-12-07T07:04:03;48.73;;;24.03;;
7410;SDS011;3747;48.628;9.058;2023-12-07T07:06:30;40.50;;;25.83;;
7410;SDS011;3747;48.628;9.058;2023-12-07T07:08:57;45.23;;;25.67;;
7410;SDS011;3747;48.628;9.058;2023-12-07T07:11:24;41.73;;;24.17;;
7410;SDS011;3747;48.628;9.058;2023-12-07T07:13:51;37.80;;;23.53;;
7410;SDS011;3747;48.628;9.058;2023-12-07T07:16:17;39.73;;;23.90;;
7410;SDS011;3747;48.628;9.058;2023-12-07T07:18:46;40.93;;;25.23;;
7410;SDS011;3747;48.628;9.058;2023-12-07T07:21:12;46.93;;;29.10;;
7410;SDS011;3747;48.628;9.058;2023-12-07T07:23:39;39.80;;;25.17;;
7410;SDS011;3747;48.628;9.058;2023-12-07T07:26:06;35.87;;;22.90;;
7410;SDS011;3747;48.628;9.058;2023-12-07T07:28:33;37.20;;;22.30;;
7410;SDS011;3747;48.628;9.058;2023-12-07T07:31:01;41.97;;;23.63;;
7410;SDS011;3747;48.628;9.058;2023-12-07T07:33:28;35.30;;;20.67;;
7410;SDS011;3747;48.628;9.058;2023-12-07T07:35:56;54.20;;;29.33;;
7410;SDS011;3747;48.628;9.058;2023-12-07T07:38:23;55.20;;;29.97;;
7410;SDS011;3747;48.628;9.058;2023-12-07T07:40:50;47.80;;;26.60;;
7410;SDS011;3747;48.628;9.058;2023-12-07T07:43:17;41.47;;;25.73;;
7410;SDS011;3747;48.628;9.058;2023-12-07T07:45:44;40.80;;;27.70;;
7410;SDS011;3747;48.628;9.058;2023-12-07T07:48:11;43.10;;;26.80;;
7410;SDS011;3747;48.628;9.058;2023-12-07T07:50:38;43.87;;;26.43;;
7410;SDS011;3747;48.628;9.058;2023-12-07T07:53:06;37.47;;;24.57;;
7410;SDS011;3747;48.628;9.058;2023-12-07T07:55:32;36.97;;;22.87;;
7410;SDS011;3747;48.628;9.058;2023-12-07T07:57:59;27.67;;;20.33;;
7410;SDS011;3747;48.628;9.058;2023-12-07T08:00:26;24.20;;;17.97;;
7410;SDS011;3747;48.628;9.058;2023-12-07T08:02:53;18.73;;;13.73;;
7410;SDS011;3747;48.628;9.058;2023-12-07T08:05:20;15.40;;;12.77;;
7410;SDS011;3747;48.628;9.058;2023-12-07T08:07:46;19.73;;;14.30;;
7410;SDS011;3747;48.628;9.058;2023-12-07T08:10:14;14.00;;;11.23;;
7410;SDS011;3747;48.628;9.058;2023-12-07T08:12:41;12.17;;;9.37;;
7410;SDS011;3747;48.628;9.058;2023-12-07T08:15:08;12.37;;;10.57;;
7410;SDS011;3747;48.628;9.058;2023-12-07T08:17:36;14.13;;;9.93;;
7410;SDS011;3747;48.628;9.058;2023-12-07T08:20:03;8.63;;;7.40;;
7410;SDS011;3747;48.628;9.058;2023-12-07T08:22:31;10.27;;;7.97;;
7410;SDS011;3747;48.628;9.058;2023-12-07T08:25:00;9.27;;;7.03;;
7410;SDS011;3747;48.628;9.058;2023-12-07T08:27:31;6.97;;;6.27;;
7410;SDS011;3747;48.628;9.058;2023-12-07T08:29:58;6.40;;;5.80;;
7410;SDS011;3747;48.628;9.058;2023-12-07T08:32:24;6.37;;;5.77;;
7410;SDS011;3747;48.628;9.058;2023-12-07T08:34:51;5.60;;;5.10;;
7410;SDS011;3747;48.628;9.058;2023-12-07T08:37:20;9.97;;;5.80;;
7410;SDS011;3747;48.628;9.058;2023-12-07T08:39:47;8.03;;;6.90;;
7410;SDS011;3747;48.628;9.058;2023-12-07T08:42:14;8.00;;;7.07;;
7410;SDS011;3747;48.628;9.058;2023-12-07T08:44:42;8.70;;;7.77;;
7410;SDS011;3747;48.628;9.058;2023-12-07T08:47:09;8.77;;;7.97;;
7410;SDS011;3747;48.628;9.058;2023-12-07T08:49:43;10.20;;;8.07;;
7410;SDS011;3747;48.628;9.058;2023-12-07T08:52:09;7.67;;;6.97;;
7410;SDS011;3747;48.628;9.058;2023-12-07T08:54:36;9.57;;;7.40;;
7410;SDS011;3747;48.628;9.058;2023-12-07T08:57:03;10.03;;;6.97;;
7410;SDS011;3747;48.628;9.058;2023-12-07T08:59:30;8.30;;;7.20;;
7410;SDS011;3747;48.628;9.058;2023-12-07T09:02:00;9.63;;;7.27;;
7410;SDS011;3747;48.628;9.058;2023-12-07T09:04:27;8.60;;;7.40;;
7410;SDS011;3747;48.628;9.058;2023-12-07T09:09:41;8.20;;;6.63;;
7410;SDS011;3747;48.628;9.058;2023-12-07T09:12:11;9.50;;;7.70;;
7410;SDS011;3747;48.628;9.058;2023-12-07T09:14:38;8.73;;;6.67;;
7410;SDS011;3747;48.628;9.058;2023-12-07T09:17:06;8.50;;;7.57;;
7410;SDS011;3747;48.628;9.058;2023-12-07T09:19:35;11.47;;;8.53;;
7410;SDS011;3747;48.628;9.058;2023-12-07T09:22:02;10.47;;;8.87;;
7410;SDS011;3747;48.628;9.058;2023-12-07T09:24:28;10.77;;;8.37;;
7410;SDS011;3747;48.628;9.058;2023-12-07T09:26:55;11.60;;;8.03;;
7410;SDS011;3747;48.628;9.058;2023-12-07T09:29:22;11.63;;;9.90;;
7410;SDS011;3747;48.628;9.058;2023-12-07T09:31:48;10.30;;;8.20;;
7410;SDS011;3747;48.628;9.058;2023-12-07T09:34:17;8.60;;;7.70;;
7410;SDS011;3747;48.628;9.058;2023-12-07T09:36:44;8.17;;;7.23;;
7410;SDS011;3747;48.628;9.058;2023-12-07T09:39:25;8.10;;;6.30;;
7410;SDS011;3747;48.628;9.058;2023-12-07T09:41:51;10.83;;;7.23;;
7410;SDS011;3747;48.628;9.058;2023-12-07T09:44:18;9.63;;;6.93;;
7410;SDS011;3747;48.628;9.058;2023-12-07T09:46:45;9.00;;;6.83;;
7410;SDS011;3747;48.628;9.058;2023-12-07T09:49:11;9.50;;;6.83;;
7410;SDS011;3747;48.628;9.058;2023-12-07T09:51:39;6.77;;;5.27;;
7410;SDS011;3747;48.628;9.058;2023-12-07T09:54:08;5.53;;;5.03;;
7410;SDS011;3747;48.628;9.058;2023-12-07T09:56:35;5.23;;;4.40;;
7410;SDS011;3747;48.628;9.058;2023-12-07T09:59:02;4.77;;;4.10;;
7410;SDS011;3747;48.628;9.058;2023-12-07T10:01:30;7.27;;;4.70;;
7410;SDS011;3747;48.628;9.058;2023-12-07T10:06:52;6.43;;;4.33;;
7410;SDS011;3747;48.628;9.058;2023-12-07T10:09:20;5.53;;;4.30;;
7410;SDS011;3747;48.628;9.058;2023-12-07T10:11:47;4.17;;;3.47;;
7410;SDS011;3747;48.628;9.058;2023-12-07T10:14:14;5.93;;;3.93;;
7410;SDS011;3747;48.628;9.058;2023-12-07T10:16:51;7.57;;;4.27;;
7410;SDS011;3747;48.628;9.058;2023-12-07T10:19:20;6.33;;;5.00;;
7410;SDS011;3747;48.628;9.058;2023-12-07T10:21:47;5.27;;;4.47;;
7410;SDS011;3747;48.628;9.058;2023-12-07T10:24:16;5.10;;;4.50;;
7410;SDS011;3747;48.628;9.058;2023-12-07T10:26:43;5.37;;;4.23;;
7410;SDS011;3747;48.628;9.058;2023-12-07T10:29:11;6.27;;;3.60;;
7410;SDS011;3747;48.628;9.058;2023-12-07T10:31:38;4.10;;;3.70;;
7410;SDS011;3747;48.628;9.058;2023-12-07T10:34:05;3.60;;;3.20;;
7410;SDS011;3747;48.628;9.058;2023-12-07T10:36:33;3.87;;;3.43;;
7410;SDS011;3747;48.628;9.058;2023-12-07T10:39:01;3.80;;;2.73;;
7410;SDS011;3747;48.628;9.058;2023-12-07T10:41:32;5.30;;;2.73;;
7410;SDS011;3747;48.628;9.058;2023-12-07T10:44:00;3.80;;;3.10;;
7410;SDS011;3747;48.628;9.058;2023-12-07T10:46:30;3.90;;;3.50;;
7410;SDS011;3747;48.628;9.058;2023-12-07T10:48:59;2.87;;;2.63;;
7410;SDS011;3747;48.628;9.058;2023-12-07T10:51:28;4.07;;;3.40;;
7410;SDS011;3747;48.628;9.058;2023-12-07T10:54:00;3.30;;;3.00;;
7410;SDS011;3747;48.628;9.058;2023-12-07T10:56:32;3.00;;;2.80;;
7410;SDS011;3747;48.628;9.058;2023-12-07T10:59:06;6.13;;;3.00;;
7410;SDS011;3747;48.628;9.058;2023-12-07T11:01:35;3.80;;;2.73;;
7410;SDS011;3747;48.628;9.058;2023-12-07T11:04:03;4.27;;;2.60;;
7410;SDS011;3747;48.628;9.058;2023-12-07T11:06:31;4.10;;;3.23;;
7410;SDS011;3747;48.628;9.058;2023-12-07T11:08:59;3.70;;;3.30;;
7410;SDS011;3747;48.628;9.058;2023-12-07T11:11:29;3.57;;;3.27;;
7410;SDS011;3747;48.628;9.058;2023-12-07T11:14:04;3.20;;;2.90;;
7410;SDS011;3747;48.628;9.058;2023-12-07T11:16:32;3.20;;;2.90;;
7410;SDS011;3747;48.628;9.058;2023-12-07T11:19:01;3.63;;;3.10;;
7410;SDS011;3747;48.628;9.058;2023-12-07T11:21:28;3.80;;;2.97;;
7410;SDS011;3747;48.628;9.058;2023-12-07T11:23:54;3.07;;;2.77;;
7410;SDS011;3747;48.628;9.058;2023-12-07T11:26:22;4.03;;;2.93;;
7410;SDS011;3747;48.628;9.058;2023-12-07T11:28:49;3.27;;;2.97;;
7410;SDS011;3747;48.628;9.058;2023-12-07T11:31:17;3.90;;;2.80;;
7410;SDS011;3747;48.628;9.058;2023-12-07T11:33:46;2.97;;;2.67;;
7410;SDS011;3747;48.628;9.058;2023-12-07T11:36:13;3.20;;;2.80;;
7410;SDS011;3747;48.628;9.058;2023-12-07T11:41:43;3.07;;;2.60;;
7410;SDS011;3747;48.628;9.058;2023-12-07T11:44:10;2.43;;;2.23;;
7410;SDS011;3747;48.628;9.058;2023-12-07T11:46:39;3.00;;;2.60;;
7410;SDS011;3747;48.628;9.058;2023-12-07T11:49:05;3.40;;;2.50;;
7410;SDS011;3747;48.628;9.058;2023-12-07T11:51:35;2.40;;;2.30;;
7410;SDS011;3747;48.628;9.058;2023-12-07T11:54:02;2.20;;;2.00;;
7410;SDS011;3747;48.628;9.058;2023-12-07T11:56:29;2.70;;;2.50;;
7410;SDS011;3747;48.628;9.058;2023-12-07T11:58:56;5.93;;;3.33;;
7410;SDS011;3747;48.628;9.058;2023-12-07T12:01:24;2.90;;;2.60;;
7410;SDS011;3747;48.628;9.058;2023-12-07T12:03:53;4.83;;;2.43;;
7410;SDS011;3747;48.628;9.058;2023-12-07T12:06:20;2.10;;;2.00;;
7410;SDS011;3747;48.628;9.058;2023-12-07T12:08:51;3.17;;;2.60;;
7410;SDS011;3747;48.628;9.058;2023-12-07T12:11:18;5.30;;;3.50;;
7410;SDS011;3747;48.628;9.058;2023-12-07T12:13:45;2.63;;;2.07;;
7410;SDS011;3747;48.628;9.058;2023-12-07T12:16:11;5.00;;;3.10;;
7410;SDS011;3747;48.628;9.058;2023-12-07T12:18:38;3.83;;;2.67;;
7410;SDS011;3747;48.628;9.058;2023-12-07T12:21:07;3.40;;;2.50;;
7410;SDS011;3747;48.628;9.058;2023-12-07T12:23:35;3.00;;;2.27;;
7410;SDS011;3747;48.628;9.058;2023-12-07T12:26:02;2.57;;;2.10;;
7410;SDS011;3747;48.628;9.058;2023-12-07T12:28:29;3.50;;;2.20;;
7410;SDS011;3747;48.628;9.058;2023-12-07T12:30:57;2.90;;;2.60;;
7410;SDS011;3747;48.628;9.058;2023-12-07T12:33:24;4.60;;;2.77;;
7410;SDS011;3747;48.628;9.058;2023-12-07T12:36:00;3.77;;;2.67;;
7410;SDS011;3747;48.628;9.058;2023-12-07T12:38:30;4.47;;;2.97;;
7410;SDS011;3747;48.628;9.058;2023-12-07T12:40:57;3.60;;;3.13;;
7410;SDS011;3747;48.628;9.058;2023-12-07T12:43:24;5.07;;;3.73;;
7410;SDS011;3747;48.628;9.058;2023-12-07T12:45:50;7.37;;;4.77;;
7410;SDS011;3747;48.628;9.058;2023-12-07T12:48:17;6.63;;;4.07;;
7410;SDS011;3747;48.628;9.058;2023-12-07T12:50:44;4.27;;;3.73;;
7410;SDS011;3747;48.628;9.058;2023-12-07T12:53:11;3.57;;;3.27;;
7410;SDS011;3747;48.628;9.058;2023-12-07T12:55:40;5.17;;;3.73;;
7410;SDS011;3747;48.628;9.058;2023-12-07T12:58:08;4.67;;;3.57;;
7410;SDS011;3747;48.628;9.058;2023-12-07T13:00:37;5.10;;;3.80;;
7410;SDS011;3747;48.628;9.058;2023-12-07T13:03:05;6.83;;;3.87;;
7410;SDS011;3747;48.628;9.058;2023-12-07T13:05:32;3.67;;;3.37;;
7410;SDS011;3747;48.628;9.058;2023-12-07T13:08:03;3.80;;;3.23;;
7410;SDS011;3747;48.628;9.058;2023-12-07T13:10:30;2.67;;;2.47;;
7410;SDS011;3747;48.628;9.058;2023-12-07T13:12:58;3.60;;;3.03;;
7410;SDS011;3747;48.628;9.058;2023-12-07T13:15:25;3.73;;;2.63;;
7410;SDS011;3747;48.628;9.058;2023-12-07T13:17:52;3.73;;;3.27;;
7410;SDS011;3747;48.628;9.058;2023-12-07T13:20:18;4.63;;;2.70;;
7410;SDS011;3747;48.628;9.058;2023-12-07T13:22:45;3.80;;;3.17;;
7410;SDS011;3747;48.628;9.058;2023-12-07T13:25:12;3.03;;;2.73;;
7410;SDS011;3747;48.628;9.058;2023-12-07T13:27:40;6.73;;;3.50;;
7410;SDS011;3747;48.628;9.058;2023-12-07T13:30:09;3.83;;;3.00;;
7410;SDS011;3747;48.628;9.058;2023-12-07T13:32:37;3.77;;;2.80;;
7410;SDS011;3747;48.628;9.058;2023-12-07T13:35:04;2.70;;;2.50;;
7410;SDS011;3747;48.628;9.058;2023-12-07T13:37:32;3.57;;;2.20;;
7410;SDS011;3747;48.628;9.058;2023-12-07T13:39:59;3.30;;;2.00;;
7410;SDS011;3747;48.628;9.058;2023-12-07T13:42:29;2.60;;;2.33;;
7410;SDS011;3747;48.628;9.058;2023-12-07T13:44:57;4.07;;;2.10;;
7410;SDS011;3747;48.628;9.058;2023-12-07T13:47:26;4.80;;;2.30;;
7410;SDS011;3747;48.628;9.058;2023-12-07T13:49:56;2.13;;;1.87;;
7410;SDS011;3747;48.628;9.058;2023-12-07T13:52:23;2.93;;;2.13;;
7410;SDS011;3747;48.628;9.058;2023-12-07T13:54:50;3.43;;;2.37;;
7410;SDS011;3747;48.628;9.058;2023-12-07T13:57:19;2.70;;;2.13;;
7410;SDS011;3747;48.628;9.058;2023-12-07T13:59:46;2.30;;;2.10;;
7410;SDS011;3747;48.628;9.058;2023-12-07T14:02:15;3.17;;;2.23;;
7410;SDS011;3747;48.628;9.058;2023-12-07T14:04:44;2.57;;;2.30;;
7410;SDS011;3747;48.628;9.058;2023-12-07T14:07:15;2.00;;;1.90;;
7410;SDS011;3747;48.628;9.058;2023-12-07T14:09:44;3.63;;;2.07;;
7410;SDS011;3747;48.628;9.058;2023-12-07T14:12:12;3.20;;;2.57;;
7410;SDS011;3747;48.628;9.058;2023-12-07T14:14:41;3.23;;;2.60;;
7410;SDS011;3747;48.628;9.058;2023-12-07T14:17:09;1.83;;;1.70;;
7410;SDS011;3747;48.628;9.058;2023-12-07T14:19:36;2.03;;;1.83;;
7410;SDS011;3747;48.628;9.058;2023-12-07T14:22:04;4.60;;;2.30;;
7410;SDS011;3747;48.628;9.058;2023-12-07T14:24:31;2.27;;;2.07;;
7410;SDS011;3747;48.628;9.058;2023-12-07T14:26:58;2.70;;;2.50;;
7410;SDS011;3747;48.628;9.058;2023-12-07T14:29:24;5.37;;;4.00;;
7410;SDS011;3747;48.628;9.058;2023-12-07T14:31:51;7.73;;;5.57;;
7410;SDS011;3747;48.628;9.058;2023-12-07T14:34:18;17.87;;;9.30;;
7410;SDS011;3747;48.628;9.058;2023-12-07T14:36:48;16.03;;;8.00;;
7410;SDS011;3747;48.628;9.058;2023-12-07T14:39:16;13.83;;;8.03;;
7410;SDS011;3747;48.628;9.058;2023-12-07T14:41:43;13.50;;;8.23;;
7410;SDS011;3747;48.628;9.058;2023-12-07T14:44:11;8.90;;;6.50;;
7410;SDS011;3747;48.628;9.058;2023-12-07T14:46:38;5.47;;;3.03;;
7410;SDS011;3747;48.628;9.058;2023-12-07T14:49:07;5.20;;;3.23;;
7410;SDS011;3747;48.628;9.058;2023-12-07T14:51:34;4.33;;;3.50;;
7410;SDS011;3747;48.628;9.058;2023-12-07T14:54:00;2.57;;;2.03;;
7410;SDS011;3747;48.628;9.058;2023-12-07T14:56:29;2.57;;;2.37;;
7410;SDS011;3747;48.628;9.058;2023-12-07T14:58:55;2.83;;;2.60;;
7410;SDS011;3747;48.628;9.058;2023-12-07T15:01:23;2.13;;;1.93;;
7410;SDS011;3747;48.628;9.058;2023-12-07T15:03:50;2.87;;;2.00;;
7410;SDS011;3747;48.628;9.058;2023-12-07T15:06:17;4.47;;;2.10;;
7410;SDS011;3747;48.628;9.058;2023-12-07T15:08:44;3.40;;;1.97;;
7410;SDS011;3747;48.628;9.058;2023-12-07T15:11:12;3.40;;;2.37;;
7410;SDS011;3747;48.628;9.058;2023-12-07T15:13:40;3.23;;;2.03;;